Foraker, Indiana
Current Conditions -  °F | °C
As of 4:53 AM on Sunday 23 Nov 2014 (Local Time) from KGSH Reporting Station
Light Rain Light Rain  
Wind Chill: 42°   Ceiling: 4800
Heat Index: 48°   Visibility: 7mi
Dew Point: 44°   Wind: 16mph
Humidity: 86%   Direction: 200°SSW
Pressure: 29.89"   Gusts: NA
Location:  41.5799°N, 85.8299°W
Report Text: KGSH 230953Z AUTO 20014KT 7SM -RA SCT035 BKN048 OVC080 09/07 A2989 RMK AO2 RAB03E18B34 SLP126 P0000 T00890067
Loading
Personal Weather Stations






























Interactive Weather Map New forecast layout! Learn more

10-Day Weather Forecast

Advertisements
Track Severe Weather on mobile